Impacts TAF Board
For situational awareness. Not to be used for flight planning purposes.
IDs:

KATL - Atlanta/Hartsfield-J, GA, US

Issued at 1554 UTC 20 Jan 2019
Updated at 1646 UTC 20 Jan 2019
Potential Impact None Slight Moderate High
Time1552Z 20/17Z 20/18Z 20/19Z 20/20Z 20/21Z 20/22Z 20/23Z 21/00Z 21/01Z 21/02Z 21/03Z 21/04Z 21/05Z>>
Type OBS PRVL PRVL PRVL PRVL PRVL PRVL PRVL PRVL PRVL PRVL PRVL PRVL PRVL
VIS 10 >6 >6 >6 >6 >6 >6 >6 >6 >6 >6 >6 >6 >6
CIG 22 22 25 25 -- -- -- -- -- -- -- -- -- --
Cover OVC OVC BKN BKN SCT SCT SCT SCT SKC SKC SKC SKC SKC SKC
FltCat MVFR MVFR MVFR MVFR VFR VFR VFR VFR VFR VFR VFR VFR VFR VFR
WX -- -- -- -- -- -- -- -- -- -- -- -- -- --
WDir 310 300 300 300 320 320 320 320 320 320 320 320 320 320
WSpd 21 20 22 22 22 22 22 22 20 20 14 14 14 14
WGst 29 30 32 32 32 32 32 32 30 30 22 22 22 22
Raw TAF
KATL 201554Z 2016/2118 30020G30KT P6SM OVC022
  FM201800 30022G32KT P6SM BKN025
  FM202000 32022G32KT P6SM SCT035
  FM210000 32020G30KT P6SM SKC
  FM210200 32014G22KT P6SM SKC
  FM210900 33012KT P6SM SKC


Raw METAR
KATL 201552Z 31021G29KT 10SM OVC022 01/M04 A2998 RMK AO2 PK WND 32029/1549 SLP155 T00061044 $
KATL 201452Z 32021G30KT 10SM OVC021 01/M05 A2993 RMK AO2 PK WND 32033/1427 SLP137 T00061050 51037 $
KATL 201352Z 31016G29KT 10SM OVC019 01/M04 A2989 RMK AO2 PK WND 32032/1312 SLP124 T00061044 $

METAR Board
Radar Display
Forecast Discussion
For situational awareness. Not to be used for flight planning purposes.